Time;durP1;ratioP1;P1;durP2;ratioP2;P2;SDS_P1;SDS_P2;PMS_P1;PMS_P2;Temp;Humidity;BMP_temperature;BMP_pressure;BME280_temperature;BME280_humidity;BME280_pressure;Samples;Min_cycle;Max_cycle;Signal;HPM_P1;HPM_P2
2023/02/25 00:01:56;;;;;;;;;;;;;;;5.16;57.58;101233.38;1952928;73;20370;-45
2023/02/25 00:04:25;;;;;;;;;;;;;;;5.18;57.62;101232.92;1958154;73;20151;-44
2023/02/25 00:06:54;;;;;;;;;;;;;;;5.19;57.68;101230.76;1952885;73;20155;-43
2023/02/25 00:09:22;;;;;;;;;;;;;;;5.21;57.67;101231.61;1952883;73;20104;-44
2023/02/25 00:11:49;;;;;;;;;;;;;;;5.22;57.69;101217.69;1952814;73;20140;-43
2023/02/25 00:14:17;;;;;;;;;;;;;;;5.22;57.76;101213.77;1953325;73;20116;-43
2023/02/25 00:16:45;;;;;;;;;;;;;;;5.22;57.86;101213.32;1953524;73;20225;-45
2023/02/25 00:19:12;;;;;;;;;;;;;;;5.21;57.90;101215.94;1953550;73;20104;-44
2023/02/25 00:21:40;;;;;;;;;;;;;;;5.20;57.89;101215.08;1953541;73;20142;-46
2023/02/25 00:24:08;;;;;;;;;;;;;;;5.21;58.22;101212.02;1952803;73;20104;-45
2023/02/25 00:26:36;;;;;;;;;;;;;;;5.23;58.22;101208.51;1952861;73;20143;-43
2023/02/25 00:29:04;;;;;;;;;;;;;;;5.25;58.13;101214.17;1952900;73;20163;-42
2023/02/25 00:31:32;;;;;;;;;;;;;;;5.24;58.09;101206.78;1952957;73;20100;-44
2023/02/25 00:34:00;;;;;;;;;;;;;;;5.25;58.08;101199.36;1954395;73;20112;-44
2023/02/25 00:36:28;;;;;;;;;;;;;;;5.27;58.16;101192.38;1955197;73;20112;-43
2023/02/25 00:38:57;;;;;;;;;;;;;;;5.28;58.16;101191.95;1955139;73;20112;-42
2023/02/25 00:41:26;;;;;;;;;;;;;;;5.29;58.13;101189.75;1955324;73;20163;-43
2023/02/25 00:43:55;;;;;;;;;;;;;;;5.31;58.22;101183.66;1954238;73;20409;-43
2023/02/25 00:46:23;;;;;;;;;;;;;;;5.35;58.25;101185.34;1952458;73;20156;-43
2023/02/25 00:48:52;;;;;;;;;;;;;;;5.40;58.23;101179.64;1953420;73;20382;-43
2023/02/25 00:51:21;;;;;;;;;;;;;;;5.44;58.22;101180.89;1953439;73;20112;-44
2023/02/25 00:53:50;;;;;;;;;;;;;;;5.47;58.25;101183.48;1952989;73;20113;-47
2023/02/25 00:56:18;;;;;;;;;;;;;;;5.51;58.24;101178.64;1952843;73;20100;-44
2023/02/25 00:58:47;;;;;;;;;;;;;;;5.52;58.13;101173.85;1952874;73;20112;-48
2023/02/25 01:01:25;;;;;;;;;;;;;;;5.52;58.18;101168.63;1952979;73;20128;-47
2023/02/25 01:03:55;;;;;;;;;;;;;;;5.54;58.16;101178.62;1953156;73;20535;-47
2023/02/25 01:06:24;;;;;;;;;;;;;;;5.58;58.16;101175.08;1953637;73;20119;-49
2023/02/25 01:08:52;;;;;;;;;;;;;;;5.61;58.13;101171.14;1953753;73;20351;-46
2023/02/25 01:11:23;;;;;;;;;;;;;;;5.64;58.19;101167.16;1953513;73;20147;-47
2023/02/25 01:13:51;;;;;;;;;;;;;;;5.66;58.10;101169.77;1953357;73;20112;-47
2023/02/25 01:16:20;;;;;;;;;;;;;;;5.66;58.09;101166.70;1953487;73;20112;-49
2023/02/25 01:18:47;;;;;;;;;;;;;;;5.63;58.04;101170.67;1953469;73;20473;-49
2023/02/25 01:21:16;;;;;;;;;;;;;;;5.61;58.08;101168.08;1953506;73;20096;-45
2023/02/25 01:23:45;;;;;;;;;;;;;;;5.62;58.17;101167.62;1953718;73;20163;-45
2023/02/25 01:26:13;;;;;;;;;;;;;;;5.67;58.16;101162.36;1953457;73;20364;-45
2023/02/25 01:28:41;;;;;;;;;;;;;;;5.67;58.14;101164.52;1953557;73;20112;-45
2023/02/25 01:31:10;;;;;;;;;;;;;;;5.67;58.13;101162.36;1953446;73;20116;-45
2023/02/25 01:33:38;;;;;;;;;;;;;;;5.66;58.17;101152.33;1952845;73;20108;-48
2023/02/25 01:36:06;;;;;;;;;;;;;;;5.69;58.21;101154.91;1953398;73;20104;-48
2023/02/25 01:38:34;;;;;;;;;;;;;;;5.74;58.20;101153.56;1953531;73;20171;-46
2023/02/25 01:41:02;;;;;;;;;;;;;;;5.76;58.20;101160.94;1953526;73;20113;-46
2023/02/25 01:43:30;;;;;;;;;;;;;;;5.79;58.20;101156.96;1953428;73;20116;-45
2023/02/25 01:45:58;;;;;;;;;;;;;;;5.80;58.16;101154.34;1955724;73;20121;-45
2023/02/25 01:48:31;;;;;;;;;;;;;;;5.88;58.07;101157.30;1956489;73;20147;-45
2023/02/25 01:51:09;;;;;;;;;;;;;;;5.94;58.04;101149.40;1956469;73;20116;-45
2023/02/25 01:53:38;;;;;;;;;;;;;;;5.97;57.93;101138.91;1934450;73;20143;-45
2023/02/25 01:56:07;;;;;;;;;;;;;;;6.05;57.81;101133.57;1927316;74;20140;-45
2023/02/25 01:58:36;;;;;;;;;;;;;;;6.11;57.66;101134.36;1927422;74;20112;-46
2023/02/25 02:01:05;;;;;;;;;;;;;;;6.21;57.46;101135.54;1927546;74;20144;-48
2023/02/25 02:03:34;;;;;;;;;;;;;;;6.33;57.03;101134.06;1929298;73;20104;-48
2023/02/25 02:06:04;;;;;;;;;;;;;;;6.40;56.70;101125.23;1927377;74;20104;-46
2023/02/25 02:08:33;;;;;;;;;;;;;;;6.48;56.40;101129.03;1927402;74;20143;-46
2023/02/25 02:11:06;;;;;;;;;;;;;;;6.52;56.19;101128.08;1927446;74;20116;-47
2023/02/25 02:13:32;;;;;;;;;;;;;;;6.53;55.95;101130.69;1936931;73;20146;-48
2023/02/25 02:16:08;;;;;;;;;;;;;;;6.56;55.86;101130.61;1958423;73;20143;-47
2023/02/25 02:18:36;;;;;;;;;;;;;;;6.61;56.04;101132.31;1956244;73;20158;-47
2023/02/25 02:21:06;;;;;;;;;;;;;;;6.63;55.98;101123.99;1958355;73;20197;-48
2023/02/25 02:23:38;;;;;;;;;;;;;;;6.61;56.12;101131.01;1956656;73;20277;-48
2023/02/25 02:26:16;;;;;;;;;;;;;;;6.59;56.09;101126.25;1927380;74;20113;-48
2023/02/25 02:28:46;;;;;;;;;;;;;;;6.59;56.00;101128.41;1927428;74;20143;-47
2023/02/25 02:31:18;;;;;;;;;;;;;;;6.62;55.89;101120.94;1926077;74;20112;-46
2023/02/25 02:33:47;;;;;;;;;;;;;;;6.62;56.05;101132.30;1927080;74;20120;-45
2023/02/25 02:36:22;;;;;;;;;;;;;;;6.61;56.01;101121.84;1954640;73;20171;-45
2023/02/25 02:38:53;;;;;;;;;;;;;;;6.59;56.01;101109.23;1920279;73;20414;-48
2023/02/25 02:41:31;;;;;;;;;;;;;;;6.56;55.78;101107.06;1955898;73;20116;-46
2023/02/25 02:44:17;;;;;;;;;;;;;;;6.54;56.10;101118.00;1955390;73;20116;-45
2023/02/25 02:46:49;;;;;;;;;;;;;;;6.51;56.12;101099.77;1953258;73;20155;-46
2023/02/25 02:49:22;;;;;;;;;;;;;;;6.51;56.07;101098.45;1953442;73;20120;-47
2023/02/25 02:51:51;;;;;;;;;;;;;;;6.50;56.04;101084.94;1952887;73;20116;-45
2023/02/25 02:54:20;;;;;;;;;;;;;;;6.51;55.59;101072.29;1951708;73;20116;-45
2023/02/25 02:56:50;;;;;;;;;;;;;;;6.53;55.50;101063.97;1952779;73;20143;-44
2023/02/25 02:59:22;;;;;;;;;;;;;;;6.63;54.72;101059.88;1952785;73;20100;-44
2023/02/25 03:01:52;;;;;;;;;;;;;;;6.72;53.54;101037.02;1953991;72;20136;-47
2023/02/25 03:04:21;;;;;;;;;;;;;;;6.81;53.95;101036.00;1955306;73;20139;-46
2023/02/25 03:06:50;;;;;;;;;;;;;;;6.87;53.59;101028.02;1953475;73;20409;-47
2023/02/25 03:09:20;;;;;;;;;;;;;;;6.88;53.77;101024.95;1952901;73;20101;-45
2023/02/25 03:11:49;;;;;;;;;;;;;;;6.89;53.05;101019.69;1952795;73;20139;-46
2023/02/25 03:14:17;;;;;;;;;;;;;;;6.95;52.89;101016.97;1952846;73;20124;-47
2023/02/25 03:16:53;;;;;;;;;;;;;;;7.07;52.61;101017.62;1952929;73;20190;-47
2023/02/25 03:19:25;;;;;;;;;;;;;;;7.16;52.40;100997.79;1945966;73;20108;-44
2023/02/25 03:21:54;;;;;;;;;;;;;;;7.21;52.48;101004.22;1953419;73;20104;-49
2023/02/25 03:24:23;;;;;;;;;;;;;;;7.25;52.25;100993.66;1955156;73;20104;-46
2023/02/25 03:26:52;;;;;;;;;;;;;;;7.30;51.24;100973.48;1955200;73;20108;-44
2023/02/25 03:29:22;;;;;;;;;;;;;;;7.37;51.23;100955.00;1952645;73;20429;-48
2023/02/25 03:31:57;;;;;;;;;;;;;;;7.47;50.50;100949.95;1947897;74;20136;-38
2023/02/25 03:34:30;;;;;;;;;;;;;;;7.53;50.88;100950.68;1947889;74;20467;-55
2023/02/25 03:37:02;;;;;;;;;;;;;;;7.56;50.81;100964.61;1951054;73;20108;-39
2023/02/25 03:39:31;;;;;;;;;;;;;;;7.58;50.61;100985.97;1953622;73;20116;-40
2023/02/25 03:42:01;;;;;;;;;;;;;;;7.60;50.29;100972.37;1953531;73;20139;-39
2023/02/25 03:44:31;;;;;;;;;;;;;;;7.62;50.07;100992.00;1953448;73;20354;-44
2023/02/25 03:47:00;;;;;;;;;;;;;;;7.62;50.29;100995.48;1948000;73;20120;-38
2023/02/25 03:49:30;;;;;;;;;;;;;;;7.62;50.87;101012.52;1947661;74;20109;-38
2023/02/25 03:51:59;;;;;;;;;;;;;;;7.60;51.05;101009.06;1949588;74;20104;-38
2023/02/25 03:54:27;;;;;;;;;;;;;;;7.59;51.02;101003.86;1949688;74;20397;-38
2023/02/25 03:56:55;;;;;;;;;;;;;;;7.59;50.95;101003.86;1950821;74;20205;-38
2023/02/25 03:59:26;;;;;;;;;;;;;;;7.62;50.76;100994.17;1951375;74;20150;-39
2023/02/25 04:01:54;;;;;;;;;;;;;;;7.67;50.04;100984.45;1951171;74;20100;-38
2023/02/25 04:04:21;;;;;;;;;;;;;;;7.72;49.97;100993.04;1951231;74;20154;-38
2023/02/25 04:06:49;;;;;;;;;;;;;;;7.76;49.49;100976.80;1951218;74;20142;-38
2023/02/25 04:09:18;;;;;;;;;;;;;;;7.83;49.32;100973.59;1951133;74;20116;-38
2023/02/25 04:11:47;;;;;;;;;;;;;;;7.86;49.28;100974.38;1951374;74;20194;-38
2023/02/25 04:14:17;;;;;;;;;;;;;;;7.90;48.58;100974.71;1951295;74;20429;-38
2023/02/25 04:16:45;;;;;;;;;;;;;;;7.95;48.62;100972.00;1951367;74;20351;-38
2023/02/25 04:19:12;;;;;;;;;;;;;;;7.97;48.31;100978.06;1951206;74;20104;-38
2023/02/25 04:21:42;;;;;;;;;;;;;;;8.04;47.58;101000.61;1951322;74;20116;-38
2023/02/25 04:24:10;;;;;;;;;;;;;;;8.05;48.27;101000.16;1951157;74;20151;-38
2023/02/25 04:26:38;;;;;;;;;;;;;;;8.02;48.00;101006.35;1951179;74;20112;-38
2023/02/25 04:29:06;;;;;;;;;;;;;;;8.04;48.03;100984.88;1951224;74;20550;-38
2023/02/25 04:31:33;;;;;;;;;;;;;;;8.08;48.02;101014.06;1951322;74;20117;-38
2023/02/25 04:34:01;;;;;;;;;;;;;;;8.10;47.81;101016.65;1951188;74;20142;-38
2023/02/25 04:36:30;;;;;;;;;;;;;;;8.10;48.20;101022.75;1951145;74;20116;-38
2023/02/25 04:38:58;;;;;;;;;;;;;;;8.08;48.44;101035.50;1951186;74;20104;-38
2023/02/25 04:41:27;;;;;;;;;;;;;;;8.06;48.48;101034.22;1951180;74;20171;-38
2023/02/25 04:43:55;;;;;;;;;;;;;;;8.04;48.24;101038.64;1951213;74;20108;-38
2023/02/25 04:46:23;;;;;;;;;;;;;;;8.06;47.63;101043.83;1955467;73;20143;-38
2023/02/25 04:48:51;;;;;;;;;;;;;;;8.09;48.16;101039.38;1965186;73;20100;-38
2023/02/25 04:51:19;;;;;;;;;;;;;;;8.08;47.93;101044.68;1965143;73;20382;-38
2023/02/25 04:53:48;;;;;;;;;;;;;;;8.08;47.61;101040.28;1965218;73;20365;-38
2023/02/25 04:56:16;;;;;;;;;;;;;;;8.11;47.61;101049.41;1943655;73;20154;-38
2023/02/25 04:58:43;;;;;;;;;;;;;;;8.14;47.19;101035.80;1926477;74;20115;-38
2023/02/25 05:01:11;;;;;;;;;;;;;;;8.17;46.72;101048.81;1926445;74;20106;-38
2023/02/25 05:03:40;;;;;;;;;;;;;;;8.22;46.90;101052.20;1926391;74;20114;-38
2023/02/25 05:06:08;;;;;;;;;;;;;;;8.24;46.50;101054.33;1926461;74;20119;-39
2023/02/25 05:08:36;;;;;;;;;;;;;;;8.27;46.67;101052.95;1926477;74;20142;-39
2023/02/25 05:11:04;;;;;;;;;;;;;;;8.31;46.38;101056.77;1926598;74;20110;-39
2023/02/25 05:13:32;;;;;;;;;;;;;;;8.34;46.36;101057.16;1926631;74;20122;-39
2023/02/25 05:16:07;;;;;;;;;;;;;;;8.37;46.30;101062.30;1926346;74;20115;-39
2023/02/25 05:18:39;;;;;;;;;;;;;;;8.39;46.25;101060.96;1926551;74;20373;-39
2023/02/25 05:21:12;;;;;;;;;;;;;;;8.46;45.90;101047.67;1926598;74;20344;-39
2023/02/25 05:23:40;;;;;;;;;;;;;;;8.52;46.08;101044.48;1919926;74;20145;-39
2023/02/25 05:26:08;;;;;;;;;;;;;;;8.58;45.76;101018.11;1926531;74;20118;-39
2023/02/25 05:28:36;;;;;;;;;;;;;;;8.63;45.41;101013.57;1926607;73;20262;-39
2023/02/25 05:31:05;;;;;;;;;;;;;;;8.67;45.65;101027.91;1926466;74;20102;-39
2023/02/25 05:33:33;;;;;;;;;;;;;;;8.72;44.46;101029.08;1925238;74;20114;-39
2023/02/25 05:36:01;;;;;;;;;;;;;;;8.76;44.61;101019.36;1926467;73;20148;-39
2023/02/25 05:38:29;;;;;;;;;;;;;;;8.79;44.04;101041.14;1926435;74;20110;-39
2023/02/25 05:40:58;;;;;;;;;;;;;;;8.85;44.30;101029.19;1926436;73;20192;-39
2023/02/25 05:43:26;;;;;;;;;;;;;;;8.91;44.36;101034.72;1926439;74;20114;-39
2023/02/25 05:45:54;;;;;;;;;;;;;;;9.15;44.28;101046.73;1926449;73;20118;-39
2023/02/25 05:48:22;;;;;;;;;;;;;;;9.33;43.75;101041.41;1956484;73;20175;-38
2023/02/25 05:50:51;;;;;;;;;;;;;;;9.44;42.98;101028.38;1960737;73;20150;-38
2023/02/25 05:53:19;;;;;;;;;;;;;;;9.55;42.94;101031.98;1960773;73;20380;-38
2023/02/25 05:55:47;;;;;;;;;;;;;;;9.76;42.77;101019.11;1964650;73;20178;-38
2023/02/25 05:58:14;;;;;;;;;;;;;;;10.22;41.62;101023.75;1972161;73;20116;-38
2023/02/25 06:00:42;;;;;;;;;;;;;;;10.66;39.54;101021.88;1972288;73;20142;-38
2023/02/25 06:03:10;;;;;;;;;;;;;;;10.98;38.68;101036.99;1972051;73;20112;-38
2023/02/25 06:05:42;;;;;;;;;;;;;;;11.40;38.62;101016.09;1972121;73;20221;-38
2023/02/25 06:08:11;;;;;;;;;;;;;;;11.88;38.81;101021.30;1972163;73;20127;-38
2023/02/25 06:10:39;;;;;;;;;;;;;;;12.31;38.07;101028.34;1972302;73;20370;-38
2023/02/25 06:13:08;;;;;;;;;;;;;;;12.69;36.81;101015.30;1972200;73;20366;-38
2023/02/25 06:15:40;;;;;;;;;;;;;;;12.88;36.11;101013.17;1972371;73;20419;-38
2023/02/25 06:18:08;;;;;;;;;;;;;;;13.12;35.74;101005.92;1972359;73;20377;-39
2023/02/25 06:20:36;;;;;;;;;;;;;;;13.17;34.75;100999.97;1972053;73;20150;-39
2023/02/25 06:23:04;;;;;;;;;;;;;;;13.41;35.06;101019.17;1972310;73;20362;-39
2023/02/25 06:25:32;;;;;;;;;;;;;;;13.81;34.86;101019.91;1972132;73;20099;-39
2023/02/25 06:28:00;;;;;;;;;;;;;;;14.08;34.36;101000.98;1972138;73;20142;-39
2023/02/25 06:30:29;;;;;;;;;;;;;;;14.12;32.81;101005.66;1972152;73;20161;-39
2023/02/25 06:32:57;;;;;;;;;;;;;;;14.20;33.19;101010.09;1972216;73;20167;-39
2023/02/25 06:35:25;;;;;;;;;;;;;;;14.39;33.04;101029.91;1972221;73;20229;-39
2023/02/25 06:37:58;;;;;;;;;;;;;;;14.64;32.51;101006.56;1972223;73;20146;-39
2023/02/25 06:40:27;;;;;;;;;;;;;;;14.94;32.83;101024.45;1972344;73;20362;-39
2023/02/25 06:42:55;;;;;;;;;;;;;;;15.46;33.01;101005.34;1972251;73;20366;-39
2023/02/25 06:45:23;;;;;;;;;;;;;;;15.71;32.01;101014.94;1972263;73;20099;-39
2023/02/25 06:47:50;;;;;;;;;;;;;;;16.10;31.87;101011.02;1959689;72;20120;-39
2023/02/25 06:50:19;;;;;;;;;;;;;;;16.20;30.75;101007.34;1942795;74;20105;-39
2023/02/25 06:52:46;;;;;;;;;;;;;;;16.22;29.90;101010.77;1942807;74;20472;-39
2023/02/25 06:55:14;;;;;;;;;;;;;;;16.35;29.73;101011.75;1942844;74;20124;-39
2023/02/25 06:57:42;;;;;;;;;;;;;;;16.43;29.63;101000.66;1944039;74;20113;-39
2023/02/25 07:00:10;;;;;;;;;;;;;;;16.72;30.17;101003.38;1944062;74;20113;-39
2023/02/25 07:02:38;;;;;;;;;;;;;;;16.92;29.86;101000.39;1943981;74;20113;-39
2023/02/25 07:05:06;;;;;;;;;;;;;;;17.13;28.75;100998.22;1943981;74;20113;-39
2023/02/25 07:07:34;;;;;;;;;;;;;;;17.30;27.96;100990.50;1943999;74;20113;-39
2023/02/25 07:10:02;;;;;;;;;;;;;;;17.27;27.90;100989.84;1944003;74;20117;-39
2023/02/25 07:12:30;;;;;;;;;;;;;;;17.29;28.30;101000.75;1944117;74;20143;-39
2023/02/25 07:15:00;;;;;;;;;;;;;;;17.55;27.02;100998.24;1943953;74;20176;-39
2023/02/25 07:17:28;;;;;;;;;;;;;;;17.47;27.04;100998.74;1944218;74;20112;-39
2023/02/25 07:19:56;;;;;;;;;;;;;;;17.49;27.15;100999.98;1944049;74;20117;-39
2023/02/25 07:22:24;;;;;;;;;;;;;;;17.60;26.87;101007.28;1944047;74;20100;-39
2023/02/25 07:24:51;;;;;;;;;;;;;;;17.60;26.90;100995.30;1944023;74;20147;-39
2023/02/25 07:27:19;;;;;;;;;;;;;;;17.69;26.44;100968.92;1943914;74;20139;-39
2023/02/25 07:29:47;;;;;;;;;;;;;;;17.69;26.24;101013.34;1944041;74;20198;-39
2023/02/25 07:32:15;;;;;;;;;;;;;;;17.68;26.22;101001.82;1944018;74;20143;-39
2023/02/25 07:34:42;;;;;;;;;;;;;;;17.79;26.19;100982.97;1943902;74;20105;-39
2023/02/25 07:37:11;;;;;;;;;;;;;;;18.02;26.19;100986.34;1943998;74;20100;-39
2023/02/25 07:39:39;;;;;;;;;;;;;;;18.05;25.91;100998.59;1944009;74;20113;-39
2023/02/25 07:42:07;;;;;;;;;;;;;;;18.19;25.52;100999.02;1943935;74;20101;-38
2023/02/25 07:44:36;;;;;;;;;;;;;;;18.26;25.29;100982.97;1944030;74;20116;-38
2023/02/25 07:47:04;;;;;;;;;;;;;;;18.21;24.98;100998.44;1943967;74;20113;-38
2023/02/25 07:49:31;;;;;;;;;;;;;;;17.47;25.70;101015.20;1958223;73;20151;-38
2023/02/25 07:51:59;;;;;;;;;;;;;;;17.25;25.85;100992.59;1960813;73;20116;-38
2023/02/25 07:54:27;;;;;;;;;;;;;;;17.42;26.38;100980.03;1960734;73;20142;-38
2023/02/25 07:56:55;;;;;;;;;;;;;;;17.71;25.78;100988.31;1964391;73;20111;-39
2023/02/25 07:59:22;;;;;;;;;;;;;;;18.00;25.34;100913.66;1965188;73;20111;-39
2023/02/25 08:01:50;;;;;;;;;;;;;;;18.06;25.45;100977.18;1965116;73;20148;-39
2023/02/25 08:04:18;;;;;;;;;;;;;;;18.30;25.71;100971.16;1965112;73;20159;-39
2023/02/25 08:06:46;;;;;;;;;;;;;;;18.56;25.14;101036.03;1965135;73;20112;-39
2023/02/25 08:09:14;;;;;;;;;;;;;;;18.80;25.17;100976.15;1965081;73;20166;-39
2023/02/25 08:11:43;;;;;;;;;;;;;;;19.19;24.52;100997.00;1965120;73;20104;-39
2023/02/25 08:14:11;;;;;;;;;;;;;;;18.68;24.89;100979.20;1965148;73;20142;-39
2023/02/25 08:16:39;;;;;;;;;;;;;;;18.56;24.97;101000.53;1965310;73;20362;-39
2023/02/25 08:19:07;;;;;;;;;;;;;;;18.59;24.86;101013.63;1965153;73;20112;-39
2023/02/25 08:21:36;;;;;;;;;;;;;;;18.43;24.81;101005.84;1965019;73;20115;-39
2023/02/25 08:24:04;;;;;;;;;;;;;;;18.13;24.54;100975.81;1965263;73;20358;-39
2023/02/25 08:26:32;;;;;;;;;;;;;;;17.79;24.86;101041.56;1965094;73;20158;-39
2023/02/25 08:28:59;;;;;;;;;;;;;;;17.52;25.21;100990.44;1965173;73;20209;-39
2023/02/25 08:31:27;;;;;;;;;;;;;;;17.23;25.49;101030.42;1965294;73;20197;-38
2023/02/25 08:33:58;;;;;;;;;;;;;;;16.72;26.79;101047.25;1965044;73;20116;-38
2023/02/25 08:36:26;;;;;;;;;;;;;;;15.81;27.30;101021.97;1965186;73;20158;-38
2023/02/25 08:38:56;;;;;;;;;;;;;;;15.39;28.59;101017.59;1965238;73;20362;-38
2023/02/25 08:41:24;;;;;;;;;;;;;;;15.36;28.76;101005.84;1965229;73;20143;-39
2023/02/25 08:43:53;;;;;;;;;;;;;;;16.00;28.37;101014.66;1965120;73;20128;-39
2023/02/25 08:46:25;;;;;;;;;;;;;;;16.47;27.37;101020.81;1965269;73;20366;-39
2023/02/25 08:48:54;;;;;;;;;;;;;;;17.02;26.84;101022.44;1965100;71;20545;-39
2023/02/25 08:51:23;;;;;;;;;;;;;;;17.52;26.69;100990.44;1965082;73;20382;-39
2023/02/25 08:53:51;;;;;;;;;;;;;;;17.36;26.22;101028.70;1964875;73;20127;-39
2023/02/25 08:56:19;;;;;;;;;;;;;;;17.15;26.73;101014.06;1956729;73;20124;-40
2023/02/25 08:58:46;;;;;;;;;;;;;;;16.51;27.10;100989.11;1950524;74;20143;-39
2023/02/25 09:01:15;;;;;;;;;;;;;;;16.02;28.08;100982.70;1950429;73;20113;-39
2023/02/25 09:03:51;;;;;;;;;;;;;;;16.70;27.37;100974.70;1950520;74;20142;-39
2023/02/25 09:06:27;;;;;;;;;;;;;;;17.97;26.19;100985.78;1950753;74;20197;-39
2023/02/25 09:08:55;;;;;;;;;;;;;;;18.86;25.22;101003.75;1950561;74;20347;-39
2023/02/25 09:11:24;;;;;;;;;;;;;;;19.23;24.35;100997.64;1950613;74;20120;-39
2023/02/25 09:13:52;;;;;;;;;;;;;;;19.39;24.28;100971.55;1950534;74;20176;-39
2023/02/25 09:16:20;;;;;;;;;;;;;;;19.50;23.96;101001.48;1950504;74;20152;-38
2023/02/25 09:18:50;;;;;;;;;;;;;;;19.30;23.96;100984.23;1950644;74;20390;-39
2023/02/25 09:21:18;;;;;;;;;;;;;;;19.16;24.22;100989.20;1950663;74;20112;-39
2023/02/25 09:23:46;;;;;;;;;;;;;;;19.29;24.36;100966.03;1952576;73;20124;-40
2023/02/25 09:26:15;;;;;;;;;;;;;;;19.49;24.31;100975.73;1950346;73;20390;-40
2023/02/25 09:28:44;;;;;;;;;;;;;;;19.59;24.41;100974.10;1950475;72;20148;-39
2023/02/25 09:31:11;;;;;;;;;;;;;;;19.85;24.39;100973.54;1950511;74;20147;-39
2023/02/25 09:33:41;;;;;;;;;;;;;;;19.95;24.22;100956.33;1950447;74;20225;-39
2023/02/25 09:36:11;;;;;;;;;;;;;;;20.14;24.00;100970.97;1950499;74;20124;-38
2023/02/25 09:38:39;;;;;;;;;;;;;;;20.13;23.78;100971.47;1950384;74;20156;-40
2023/02/25 09:41:26;;;;;;;;;;;;;;;19.65;24.28;100972.80;1950545;74;20113;-40
2023/02/25 09:43:55;;;;;;;;;;;;;;;19.71;24.59;100994.20;1950443;74;20112;-39
2023/02/25 09:46:25;;;;;;;;;;;;;;;19.67;24.25;100973.05;1949151;73;20147;-39
2023/02/25 09:48:54;;;;;;;;;;;;;;;19.57;24.45;100953.34;1950149;71;20398;-40
2023/02/25 09:51:23;;;;;;;;;;;;;;;19.43;24.63;100972.18;1936501;74;20607;-39
2023/02/25 09:53:55;;;;;;;;;;;;;;;19.43;24.98;100965.02;1943630;74;20117;-39
2023/02/25 09:56:24;;;;;;;;;;;;;;;19.47;24.79;100943.79;1944707;74;20140;-37
2023/02/25 09:58:55;;;;;;;;;;;;;;;19.46;25.04;100974.64;1945531;74;20383;-39
2023/02/25 10:01:28;;;;;;;;;;;;;;;19.70;24.92;100962.63;1945248;74;20150;-39
2023/02/25 10:04:03;;;;;;;;;;;;;;;19.63;25.27;100960.89;1945183;74;20172;-39
2023/02/25 10:06:38;;;;;;;;;;;;;;;19.88;24.99;100910.98;1944797;74;20124;-39
2023/02/25 10:09:24;;;;;;;;;;;;;;;19.66;24.92;100932.63;1945295;74;20139;-39
2023/02/25 10:12:12;;;;;;;;;;;;;;;19.64;25.06;100946.58;1945305;74;20182;-39
2023/02/25 10:14:40;;;;;;;;;;;;;;;19.84;24.90;100944.26;1945281;74;20155;-37
2023/02/25 10:17:10;;;;;;;;;;;;;;;19.23;25.24;100946.43;1945353;74;20202;-38
2023/02/25 10:19:45;;;;;;;;;;;;;;;19.05;25.68;100943.75;1945457;74;20194;-39
2023/02/25 10:22:33;;;;;;;;;;;;;;;19.17;25.47;100963.39;1909050;74;20117;-39
2023/02/25 10:25:02;;;;;;;;;;;;;;;19.37;25.47;100960.13;1945220;74;20147;-38
2023/02/25 10:27:35;;;;;;;;;;;;;;;19.15;25.33;100956.82;1944059;74;20116;-38
2023/02/25 10:30:08;;;;;;;;;;;;;;;19.13;25.50;100954.75;1945359;74;20143;-39
2023/02/25 10:32:36;;;;;;;;;;;;;;;19.28;25.73;100928.77;1945164;74;20109;-38
2023/02/25 10:35:18;;;;;;;;;;;;;;;18.96;25.74;100957.75;1945094;74;20101;-40
2023/02/25 10:37:46;;;;;;;;;;;;;;;18.72;26.10;100927.83;1945291;74;20100;-39
2023/02/25 10:40:15;;;;;;;;;;;;;;;18.77;26.32;100960.34;1945203;74;20109;-40
2023/02/25 10:42:44;;;;;;;;;;;;;;;17.93;26.94;100969.15;1945310;74;20355;-39
2023/02/25 10:45:13;;;;;;;;;;;;;;;16.73;28.50;100983.84;1944154;74;20152;-39
2023/02/25 10:47:42;;;;;;;;;;;;;;;15.95;29.69;100984.88;1945071;74;20426;-39
2023/02/25 10:50:14;;;;;;;;;;;;;;;16.02;30.24;100995.98;1950344;72;20394;-39
2023/02/25 10:52:44;;;;;;;;;;;;;;;16.15;30.44;100977.53;1959086;73;20116;-39
2023/02/25 10:55:13;;;;;;;;;;;;;;;16.49;30.31;100980.38;1949882;73;20123;-39
2023/02/25 10:57:41;;;;;;;;;;;;;;;15.97;30.71;100983.44;1948528;73;20104;-39
2023/02/25 11:00:16;;;;;;;;;;;;;;;15.25;31.52;100967.08;1950290;74;20143;-38
2023/02/25 11:02:43;;;;;;;;;;;;;;;14.81;32.13;100969.89;1949214;73;20117;-39
2023/02/25 11:05:29;;;;;;;;;;;;;;;14.49;32.80;100975.51;1950537;74;20097;-39
2023/02/25 11:07:57;;;;;;;;;;;;;;;14.22;33.36;100979.97;1950445;74;20104;-39
2023/02/25 11:10:25;;;;;;;;;;;;;;;13.99;34.04;100967.02;1950386;74;20112;-39
2023/02/25 11:12:55;;;;;;;;;;;;;;;13.74;34.37;100985.44;1950665;74;20125;-39
2023/02/25 11:15:25;;;;;;;;;;;;;;;13.47;34.80;100983.16;1950557;74;20113;-39
2023/02/25 11:17:53;;;;;;;;;;;;;;;13.18;35.28;100997.70;1950456;74;20143;-38
2023/02/25 11:20:22;;;;;;;;;;;;;;;12.88;38.35;100989.39;1950468;74;20171;-38
2023/02/25 11:22:54;;;;;;;;;;;;;;;12.14;42.72;100980.21;1949437;73;20116;-38
2023/02/25 11:25:42;;;;;;;;;;;;;;;11.51;46.00;100980.09;1950522;74;20183;-38
2023/02/25 11:28:11;;;;;;;;;;;;;;;10.40;56.27;100946.41;1950566;74;20374;-38
2023/02/25 11:30:40;;;;;;;;;;;;;;;9.31;65.41;100973.59;1946371;73;20153;-38
2023/02/25 11:33:09;;;;;;;;;;;;;;;9.85;67.28;100981.54;1950553;73;20120;-38
2023/02/25 11:35:38;;;;;;;;;;;;;;;10.13;63.58;100977.16;1942097;74;20150;-38
2023/02/25 11:38:16;;;;;;;;;;;;;;;10.30;59.60;100986.64;1950686;74;20154;-38
2023/02/25 11:40:44;;;;;;;;;;;;;;;10.73;54.74;100982.53;1949786;73;20139;-38
2023/02/25 11:43:17;;;;;;;;;;;;;;;10.90;52.15;100978.43;1950565;74;20117;-38
2023/02/25 11:45:52;;;;;;;;;;;;;;;10.88;51.29;100975.00;1950688;74;20379;-38
2023/02/25 11:48:21;;;;;;;;;;;;;;;10.88;50.89;100960.51;1949625;73;20401;-38
2023/02/25 11:50:56;;;;;;;;;;;;;;;10.74;51.68;100965.83;1950491;73;20164;-38
2023/02/25 11:53:28;;;;;;;;;;;;;;;10.74;50.99;100968.47;1950485;74;20116;-39
2023/02/25 11:56:00;;;;;;;;;;;;;;;10.79;50.22;100974.90;1954187;73;20116;-39
2023/02/25 11:58:33;;;;;;;;;;;;;;;11.00;51.45;100974.55;1943289;73;20147;-39
2023/02/25 12:01:10;;;;;;;;;;;;;;;11.74;50.50;100958.52;1958132;73;20112;-38
2023/02/25 12:03:39;;;;;;;;;;;;;;;12.00;48.15;100951.36;1948497;73;20150;-38
2023/02/25 12:06:24;;;;;;;;;;;;;;;11.68;45.58;100975.92;1958090;73;20112;-38
2023/02/25 12:09:10;;;;;;;;;;;;;;;11.41;47.29;100966.84;1957582;73;20105;-38
2023/02/25 12:11:39;;;;;;;;;;;;;;;11.36;46.69;100981.98;1959175;73;20116;-38
2023/02/25 12:14:08;;;;;;;;;;;;;;;11.49;45.97;100983.25;1959099;73;20117;-38
2023/02/25 12:16:38;;;;;;;;;;;;;;;11.47;45.04;100987.72;1951232;73;20104;-38
2023/02/25 12:19:11;;;;;;;;;;;;;;;11.39;45.23;100962.09;1936655;73;20108;-38
2023/02/25 12:21:49;;;;;;;;;;;;;;;11.42;45.76;100973.85;1959246;73;20146;-38
2023/02/25 12:24:24;;;;;;;;;;;;;;;11.46;44.84;100991.27;1959176;73;20116;-38
2023/02/25 12:27:10;;;;;;;;;;;;;;;11.41;44.52;100987.94;1959147;73;20108;-38
2023/02/25 12:29:45;;;;;;;;;;;;;;;11.42;45.16;100954.52;1959167;73;20146;-38
2023/02/25 12:32:32;;;;;;;;;;;;;;;11.68;45.15;100962.73;1958019;73;20124;-38
2023/02/25 12:35:05;;;;;;;;;;;;;;;11.76;45.38;100984.38;1959131;73;20124;-38
2023/02/25 12:37:41;;;;;;;;;;;;;;;11.68;45.53;100971.97;1959151;73;20124;-38
2023/02/25 12:40:26;;;;;;;;;;;;;;;11.74;45.59;100978.31;1957922;73;20116;-38
2023/02/25 12:43:08;;;;;;;;;;;;;;;11.72;44.45;100961.69;1959083;72;20116;-38
2023/02/25 12:45:47;;;;;;;;;;;;;;;11.65;44.46;100977.36;1957677;73;20104;-38
2023/02/25 12:48:25;;;;;;;;;;;;;;;11.53;44.62;100974.76;1959069;73;20112;-38
2023/02/25 12:50:54;;;;;;;;;;;;;;;11.57;44.66;100971.07;1958659;72;20120;-39
2023/02/25 12:53:23;;;;;;;;;;;;;;;11.51;44.51;100971.30;1958257;73;20104;-39
2023/02/25 12:55:59;;;;;;;;;;;;;;;11.50;44.82;100981.45;1953718;73;20108;-39